createdAt,value
2023-11-05T00:00:02.281Z,94792.00
2023-11-05T00:00:12.285Z,94794.00
2023-11-05T00:00:22.292Z,94796.00
2023-11-05T00:00:32.299Z,94790.00
2023-11-05T00:00:42.337Z,94794.00
2023-11-05T00:00:52.345Z,94796.00
2023-11-05T00:01:02.409Z,94796.00
2023-11-05T00:01:12.496Z,94794.00
2023-11-05T00:01:22.583Z,94796.00
2023-11-05T00:01:32.633Z,94798.00
2023-11-05T00:01:42.630Z,94800.00
2023-11-05T00:01:52.630Z,94798.00
2023-11-05T00:02:02.652Z,94796.00
2023-11-05T00:02:12.651Z,94796.00
2023-11-05T00:02:22.667Z,94796.00
2023-11-05T00:02:32.733Z,94794.00
2023-11-05T00:02:42.771Z,94790.00
2023-11-05T00:02:52.876Z,94788.00
2023-11-05T00:03:03.038Z,94788.00
2023-11-05T00:03:13.024Z,94788.00
2023-11-05T00:03:23.225Z,94786.00
2023-11-05T00:03:33.144Z,94782.00
2023-11-05T00:03:43.510Z,94780.00
2023-11-05T00:03:53.506Z,94784.00
2023-11-05T00:04:03.596Z,94784.00
2023-11-05T00:04:13.896Z,94790.00
2023-11-05T00:04:23.921Z,94788.00
2023-11-05T00:04:33.972Z,94788.00
2023-11-05T00:04:43.986Z,94792.00
2023-11-05T00:04:54.017Z,94794.00
2023-11-05T00:05:04.047Z,94788.00
2023-11-05T00:05:14.117Z,94790.00
2023-11-05T00:05:24.149Z,94790.00
2023-11-05T00:05:34.167Z,94790.00
2023-11-05T00:05:44.273Z,94792.00
2023-11-05T00:05:54.333Z,94794.00
2023-11-05T00:06:04.336Z,94792.00
2023-11-05T00:06:14.341Z,94788.00
2023-11-05T00:06:24.359Z,94788.00
2023-11-05T00:06:34.357Z,94786.00
2023-11-05T00:06:44.363Z,94786.00
2023-11-05T00:06:54.376Z,94786.00
2023-11-05T00:07:04.410Z,94786.00
2023-11-05T00:07:14.521Z,94782.00
2023-11-05T00:07:24.522Z,94786.00
2023-11-05T00:07:34.538Z,94786.00
2023-11-05T00:07:44.627Z,94782.00
2023-11-05T00:07:54.633Z,94774.00
2023-11-05T00:08:04.627Z,94776.00
2023-11-05T00:08:14.666Z,94776.00
2023-11-05T00:08:24.673Z,94780.00
2023-11-05T00:08:34.679Z,94776.00
2023-11-05T00:08:44.681Z,94776.00
2023-11-05T00:08:54.690Z,94778.00
2023-11-05T00:09:04.808Z,94778.00
2023-11-05T00:09:14.814Z,94782.00
2023-11-05T00:09:25.094Z,94790.00
2023-11-05T00:09:35.094Z,94788.00
2023-11-05T00:09:45.129Z,94776.00
2023-11-05T00:09:55.118Z,94778.00
2023-11-05T00:10:05.169Z,94770.00
2023-11-05T00:10:15.219Z,94772.00
2023-11-05T00:10:25.277Z,94772.00
2023-11-05T00:10:35.310Z,94758.00
2023-11-05T00:10:45.364Z,94762.00
2023-11-05T00:10:55.377Z,94766.00
2023-11-05T00:11:05.389Z,94774.00
2023-11-05T00:11:15.396Z,94749.00
2023-11-05T00:11:25.402Z,94758.00
2023-11-05T00:11:35.426Z,94757.00
2023-11-05T00:11:45.427Z,94764.00
2023-11-05T00:11:55.430Z,94766.00
2023-11-05T00:12:05.499Z,94758.00
2023-11-05T00:12:15.489Z,94755.00
2023-11-05T00:12:25.505Z,94751.00
2023-11-05T00:12:35.498Z,94751.00
2023-11-05T00:12:45.517Z,94755.00
2023-11-05T00:12:55.533Z,94755.00
2023-11-05T00:13:05.537Z,94757.00
2023-11-05T00:13:15.547Z,94758.00
2023-11-05T00:13:25.580Z,94753.00
2023-11-05T00:13:35.668Z,94747.00
2023-11-05T00:13:45.702Z,94745.00
2023-11-05T00:13:55.708Z,94743.00
2023-11-05T00:14:05.719Z,94743.00
2023-11-05T00:14:15.729Z,94743.00
2023-11-05T00:14:25.743Z,94741.00
2023-11-05T00:14:35.750Z,94741.00
2023-11-05T00:14:45.765Z,94745.00
2023-11-05T00:14:55.774Z,94745.00
2023-11-05T00:15:05.788Z,94751.00
2023-11-05T00:15:15.800Z,94745.00
2023-11-05T00:15:25.816Z,94745.00
2023-11-05T00:15:35.816Z,94743.00
2023-11-05T00:15:45.825Z,94741.00
2023-11-05T00:15:56.041Z,94745.00
2023-11-05T00:16:05.938Z,94743.00
2023-11-05T00:16:15.965Z,94743.00
2023-11-05T00:16:26.053Z,94743.00
2023-11-05T00:16:36.073Z,94745.00
2023-11-05T00:16:46.068Z,94743.00
2023-11-05T00:16:56.066Z,94747.00
2023-11-05T00:17:06.094Z,94749.00
2023-11-05T00:17:16.088Z,94747.00
2023-11-05T00:17:26.092Z,94745.00
2023-11-05T00:17:36.193Z,94753.00
2023-11-05T00:17:46.219Z,94753.00
2023-11-05T00:17:56.274Z,94753.00
2023-11-05T00:18:06.306Z,94753.00
2023-11-05T00:18:16.334Z,94749.00
2023-11-05T00:18:26.339Z,94751.00
2023-11-05T00:18:36.398Z,94751.00
2023-11-05T00:18:46.441Z,94749.00
2023-11-05T00:18:56.525Z,94749.00
2023-11-05T00:19:06.579Z,94749.00
2023-11-05T00:19:16.638Z,94751.00
2023-11-05T00:19:26.593Z,94755.00
2023-11-05T00:19:36.637Z,94762.00
2023-11-05T00:19:46.658Z,94757.00
2023-11-05T00:19:56.794Z,94757.00
2023-11-05T00:20:06.791Z,94755.00
2023-11-05T00:20:16.792Z,94760.00
2023-11-05T00:20:26.801Z,94755.00
2023-11-05T00:20:36.830Z,94757.00
2023-11-05T00:20:46.837Z,94758.00
2023-11-05T00:20:56.828Z,94758.00
2023-11-05T00:21:06.858Z,94757.00
2023-11-05T00:21:16.897Z,94758.00
2023-11-05T00:21:26.898Z,94757.00
2023-11-05T00:21:36.904Z,94755.00
2023-11-05T00:21:46.942Z,94749.00
2023-11-05T00:21:56.948Z,94745.00
2023-11-05T00:22:06.990Z,94741.00
2023-11-05T00:22:17.067Z,94741.00
2023-11-05T00:22:27.111Z,94741.00
2023-11-05T00:22:37.166Z,94743.00
2023-11-05T00:22:47.210Z,94747.00
2023-11-05T00:22:57.231Z,94749.00
2023-11-05T00:23:07.227Z,94745.00
2023-11-05T00:23:17.260Z,94747.00
2023-11-05T00:23:27.295Z,94747.00
2023-11-05T00:23:37.306Z,94749.00
2023-11-05T00:23:47.313Z,94749.00
2023-11-05T00:23:57.316Z,94749.00
2023-11-05T00:24:07.326Z,94749.00
2023-11-05T00:24:17.327Z,94751.00
2023-11-05T00:24:27.343Z,94755.00
2023-11-05T00:24:37.365Z,94749.00
2023-11-05T00:24:47.362Z,94751.00
2023-11-05T00:24:57.372Z,94749.00
2023-11-05T00:25:07.449Z,94749.00
2023-11-05T00:25:17.496Z,94753.00
2023-11-05T00:25:27.583Z,94755.00
2023-11-05T00:25:37.616Z,94751.00
2023-11-05T00:25:47.616Z,94741.00
2023-11-05T00:25:57.627Z,94741.00
2023-11-05T00:26:07.649Z,94741.00
2023-11-05T00:26:17.916Z,94747.00
2023-11-05T00:26:27.924Z,94743.00
2023-11-05T00:26:37.930Z,94743.00
2023-11-05T00:26:47.928Z,94749.00
2023-11-05T00:26:57.935Z,94747.00
2023-11-05T00:27:07.949Z,94743.00
2023-11-05T00:27:17.941Z,94741.00
2023-11-05T00:27:27.962Z,94735.00
2023-11-05T00:27:37.980Z,94741.00
2023-11-05T00:27:47.983Z,94745.00
2023-11-05T00:27:58.024Z,94737.00
2023-11-05T00:28:08.075Z,94733.00
2023-11-05T00:28:18.089Z,94739.00
2023-11-05T00:28:28.142Z,94741.00
2023-11-05T00:28:38.173Z,94739.00
2023-11-05T00:28:48.159Z,94741.00
2023-11-05T00:28:58.161Z,94745.00
2023-11-05T00:29:08.168Z,94745.00
2023-11-05T00:29:18.192Z,94737.00
2023-11-05T00:29:28.199Z,94737.00
2023-11-05T00:29:38.228Z,94739.00
2023-11-05T00:29:48.255Z,94739.00
2023-11-05T00:29:58.251Z,94737.00
2023-11-05T00:30:08.246Z,94739.00
2023-11-05T00:30:18.309Z,94743.00
2023-11-05T00:30:28.292Z,94743.00
2023-11-05T00:30:38.312Z,94737.00
2023-11-05T00:30:48.316Z,94739.00
2023-11-05T00:30:58.341Z,94735.00
2023-11-05T00:31:08.372Z,94743.00
2023-11-05T00:31:18.414Z,94741.00
2023-11-05T00:31:28.472Z,94731.00
2023-11-05T00:31:38.485Z,94737.00
2023-11-05T00:31:48.528Z,94735.00
2023-11-05T00:31:58.530Z,94737.00
2023-11-05T00:32:08.535Z,94735.00
2023-11-05T00:32:18.539Z,94729.00
2023-11-05T00:32:28.706Z,94735.00
2023-11-05T00:32:38.992Z,94731.00
2023-11-05T00:32:49.172Z,94727.00
2023-11-05T00:32:59.170Z,94729.00
2023-11-05T00:33:09.445Z,94727.00
2023-11-05T00:33:19.623Z,94719.00
2023-11-05T00:33:29.626Z,94723.00
2023-11-05T00:33:39.979Z,94721.00
2023-11-05T00:33:49.981Z,94719.00
2023-11-05T00:34:00.090Z,94727.00
2023-11-05T00:34:10.170Z,94731.00
2023-11-05T00:34:20.159Z,94735.00
2023-11-05T00:34:30.250Z,94735.00
2023-11-05T00:34:40.401Z,94737.00
2023-11-05T00:34:50.514Z,94737.00
2023-11-05T00:35:00.649Z,94737.00
2023-11-05T00:35:10.673Z,94735.00
2023-11-05T00:35:20.748Z,94737.00
2023-11-05T00:35:30.778Z,94737.00
2023-11-05T00:35:40.820Z,94739.00
2023-11-05T00:35:50.803Z,94745.00
2023-11-05T00:36:00.821Z,94737.00
2023-11-05T00:36:10.841Z,94743.00
2023-11-05T00:36:20.855Z,94741.00
2023-11-05T00:36:30.859Z,94729.00
2023-11-05T00:36:40.872Z,94731.00
2023-11-05T00:36:50.887Z,94733.00
2023-11-05T00:37:00.897Z,94733.00
2023-11-05T00:37:10.952Z,94731.00
2023-11-05T00:37:20.992Z,94735.00
2023-11-05T00:37:31.024Z,94737.00
2023-11-05T00:37:41.016Z,94735.00
2023-11-05T00:37:51.038Z,94733.00
2023-11-05T00:38:01.046Z,94727.00
2023-11-05T00:38:11.094Z,94729.00
2023-11-05T00:38:21.167Z,94725.00
2023-11-05T00:38:31.158Z,94725.00
2023-11-05T00:38:41.197Z,94729.00
2023-11-05T00:38:51.246Z,94729.00
2023-11-05T00:39:01.301Z,94725.00
2023-11-05T00:39:11.316Z,94723.00
2023-11-05T00:39:21.344Z,94725.00
2023-11-05T00:39:31.345Z,94721.00
2023-11-05T00:39:41.370Z,94723.00
2023-11-05T00:39:51.416Z,94725.00
2023-11-05T00:40:05.404Z,94725.00
2023-11-05T00:40:11.556Z,94727.00
2023-11-05T00:40:21.574Z,94725.00
2023-11-05T00:40:31.700Z,94729.00
2023-11-05T00:40:41.680Z,94725.00
2023-11-05T00:40:51.672Z,94727.00
2023-11-05T00:41:01.706Z,94729.00
2023-11-05T00:41:11.746Z,94727.00
2023-11-05T00:41:21.751Z,94725.00
2023-11-05T00:41:31.754Z,94723.00
2023-11-05T00:41:41.772Z,94719.00
2023-11-05T00:41:51.787Z,94721.00
2023-11-05T00:42:01.801Z,94709.00
2023-11-05T00:42:11.798Z,94707.00
2023-11-05T00:42:21.808Z,94709.00
2023-11-05T00:42:31.810Z,94713.00
2023-11-05T00:42:41.842Z,94717.00
2023-11-05T00:42:51.849Z,94719.00
2023-11-05T00:43:01.886Z,94723.00
2023-11-05T00:43:11.921Z,94717.00
2023-11-05T00:43:21.967Z,94715.00
2023-11-05T00:43:32.096Z,94715.00
2023-11-05T00:43:42.111Z,94711.00
2023-11-05T00:43:52.366Z,94717.00
2023-11-05T00:44:02.434Z,94709.00
2023-11-05T00:44:12.445Z,94715.00
2023-11-05T00:44:22.497Z,94713.00
2023-11-05T00:44:32.517Z,94711.00
2023-11-05T00:44:42.518Z,94711.00
2023-11-05T00:44:52.543Z,94705.00
2023-11-05T00:45:02.558Z,94703.00
2023-11-05T00:45:12.579Z,94705.00
2023-11-05T00:45:22.588Z,94707.00
2023-11-05T00:45:32.594Z,94705.00
2023-11-05T00:45:42.681Z,94707.00
2023-11-05T00:45:52.690Z,94711.00
2023-11-05T00:46:02.744Z,94715.00
2023-11-05T00:46:12.785Z,94721.00
2023-11-05T00:46:22.833Z,94717.00
2023-11-05T00:46:32.875Z,94717.00
2023-11-05T00:46:42.919Z,94709.00
2023-11-05T00:46:52.950Z,94717.00
2023-11-05T00:47:02.964Z,94717.00
2023-11-05T00:47:12.964Z,94709.00
2023-11-05T00:47:22.976Z,94711.00
2023-11-05T00:47:33.005Z,94711.00
2023-11-05T00:47:43.034Z,94709.00
2023-11-05T00:47:53.050Z,94711.00
2023-11-05T00:48:03.101Z,94711.00
2023-11-05T00:48:13.130Z,94713.00
2023-11-05T00:48:23.134Z,94713.00
2023-11-05T00:48:33.146Z,94715.00
2023-11-05T00:48:43.292Z,94713.00
2023-11-05T00:48:53.335Z,94709.00
2023-11-05T00:49:03.695Z,94707.00
2023-11-05T00:49:13.845Z,94705.00
2023-11-05T00:49:23.816Z,94703.00
2023-11-05T00:49:34.047Z,94703.00
2023-11-05T00:49:44.095Z,94705.00
2023-11-05T00:49:54.061Z,94705.00
2023-11-05T00:50:04.134Z,94709.00
2023-11-05T00:50:14.175Z,94711.00
2023-11-05T00:50:24.180Z,94709.00
2023-11-05T00:50:34.191Z,94715.00
2023-11-05T00:50:44.210Z,94713.00
2023-11-05T00:50:54.212Z,94711.00
2023-11-05T00:51:04.213Z,94709.00
2023-11-05T00:51:14.228Z,94705.00
2023-11-05T00:51:24.258Z,94707.00
2023-11-05T00:51:34.255Z,94707.00
2023-11-05T00:51:44.263Z,94709.00
2023-11-05T00:51:54.272Z,94705.00
2023-11-05T00:52:04.420Z,94709.00
2023-11-05T00:52:14.341Z,94707.00
2023-11-05T00:52:24.363Z,94700.00
2023-11-05T00:52:34.470Z,94692.00
2023-11-05T00:52:44.626Z,94696.00
2023-11-05T00:52:54.576Z,94703.00
2023-11-05T00:53:04.582Z,94711.00
2023-11-05T00:53:14.583Z,94705.00
2023-11-05T00:53:24.628Z,94702.00
2023-11-05T00:53:34.899Z,94702.00
2023-11-05T00:53:44.888Z,94698.00
2023-11-05T00:53:54.888Z,94700.00
2023-11-05T00:54:04.892Z,94702.00
2023-11-05T00:54:14.910Z,94703.00
2023-11-05T00:54:24.919Z,94702.00
2023-11-05T00:54:34.935Z,94707.00
2023-11-05T00:54:45.020Z,94709.00
2023-11-05T00:54:55.022Z,94713.00
2023-11-05T00:55:05.053Z,94702.00
2023-11-05T00:55:15.217Z,94698.00
2023-11-05T00:55:25.148Z,94702.00
2023-11-05T00:55:35.202Z,94700.00
2023-11-05T00:55:45.216Z,94700.00
2023-11-05T00:55:55.348Z,94707.00
2023-11-05T00:56:05.356Z,94705.00
2023-11-05T00:56:15.371Z,94703.00
2023-11-05T00:56:25.384Z,94702.00
2023-11-05T00:56:35.387Z,94709.00
2023-11-05T00:56:45.393Z,94703.00
2023-11-05T00:56:55.410Z,94711.00
2023-11-05T00:57:05.426Z,94702.00
2023-11-05T00:57:15.423Z,94702.00
2023-11-05T00:57:25.437Z,94703.00
2023-11-05T00:57:35.444Z,94709.00
2023-11-05T00:57:45.451Z,94703.00
2023-11-05T00:57:55.496Z,94703.00
2023-11-05T00:58:05.521Z,94698.00
2023-11-05T00:58:15.554Z,94700.00
2023-11-05T00:58:25.568Z,94700.00
2023-11-05T00:58:35.666Z,94703.00
2023-11-05T00:58:45.671Z,94705.00
2023-11-05T00:58:55.725Z,94702.00
2023-11-05T00:59:05.731Z,94698.00
2023-11-05T00:59:15.745Z,94696.00
2023-11-05T00:59:25.758Z,94700.00
2023-11-05T00:59:35.761Z,94703.00
2023-11-05T00:59:45.789Z,94707.00
2023-11-05T00:59:55.780Z,94707.00
2023-11-05T01:00:13.268Z,94705.00
2023-11-05T01:00:20.711Z,94707.00
2023-11-05T01:00:27.687Z,94703.00
2023-11-05T01:00:35.919Z,94700.00
2023-11-05T01:00:45.930Z,94700.00
2023-11-05T01:00:55.948Z,94698.00
2023-11-05T01:01:06.180Z,94702.00
2023-11-05T01:01:16.158Z,94700.00
2023-11-05T01:01:26.323Z,94694.00
2023-11-05T01:01:36.359Z,94700.00
2023-11-05T01:01:46.361Z,94698.00
2023-11-05T01:01:56.369Z,94702.00
2023-11-05T01:02:06.380Z,94700.00
2023-11-05T01:02:16.383Z,94700.00
2023-11-05T01:02:26.429Z,94698.00
2023-11-05T01:02:36.491Z,94698.00
2023-11-05T01:02:46.603Z,94696.00
2023-11-05T01:02:56.603Z,94698.00
2023-11-05T01:03:06.979Z,94702.00
2023-11-05T01:03:17.107Z,94694.00
2023-11-05T01:03:27.084Z,94690.00
2023-11-05T01:03:37.514Z,94688.00
2023-11-05T01:03:47.450Z,94688.00
2023-11-05T01:03:57.470Z,94692.00
2023-11-05T01:04:07.869Z,94696.00
2023-11-05T01:04:17.882Z,94698.00
2023-11-05T01:04:27.835Z,94698.00
2023-11-05T01:04:37.950Z,94698.00
2023-11-05T01:04:48.047Z,94698.00
2023-11-05T01:04:58.146Z,94698.00
2023-11-05T01:05:08.273Z,94702.00
2023-11-05T01:05:18.415Z,94700.00
2023-11-05T01:05:28.338Z,94688.00
2023-11-05T01:05:38.332Z,94690.00
2023-11-05T01:05:48.459Z,94690.00
2023-11-05T01:05:58.518Z,94692.00
2023-11-05T01:06:08.508Z,94690.00
2023-11-05T01:06:18.510Z,94688.00
2023-11-05T01:06:28.517Z,94686.00
2023-11-05T01:06:38.517Z,94686.00
2023-11-05T01:06:48.521Z,94686.00
2023-11-05T01:06:58.593Z,94686.00
2023-11-05T01:07:08.662Z,94686.00
2023-11-05T01:07:18.716Z,94686.00
2023-11-05T01:07:28.769Z,94688.00
2023-11-05T01:07:38.777Z,94692.00
2023-11-05T01:07:48.812Z,94690.00
2023-11-05T01:07:58.803Z,94690.00
2023-11-05T01:08:08.815Z,94694.00
2023-11-05T01:08:18.825Z,94692.00
2023-11-05T01:08:28.857Z,94696.00
2023-11-05T01:08:38.846Z,94692.00
2023-11-05T01:08:48.875Z,94694.00
2023-11-05T01:08:58.886Z,94698.00
2023-11-05T01:09:08.898Z,94700.00
2023-11-05T01:09:18.957Z,94696.00
2023-11-05T01:09:28.947Z,94694.00
2023-11-05T01:09:38.955Z,94692.00
2023-11-05T01:09:48.994Z,94694.00
2023-11-05T01:09:59.034Z,94692.00
2023-11-05T01:10:09.066Z,94692.00
2023-11-05T01:10:19.082Z,94698.00
2023-11-05T01:10:29.186Z,94696.00
2023-11-05T01:10:39.249Z,94690.00
2023-11-05T01:10:49.296Z,94688.00
2023-11-05T01:10:59.578Z,94688.00
2023-11-05T01:11:09.589Z,94682.00
2023-11-05T01:11:19.587Z,94686.00
2023-11-05T01:11:29.598Z,94686.00
2023-11-05T01:11:39.620Z,94680.00
2023-11-05T01:11:49.612Z,94682.00
2023-11-05T01:11:59.612Z,94682.00
2023-11-05T01:12:09.621Z,94682.00
2023-11-05T01:12:19.647Z,94680.00
2023-11-05T01:12:29.665Z,94680.00
2023-11-05T01:12:39.670Z,94676.00
2023-11-05T01:12:49.697Z,94676.00
2023-11-05T01:12:59.696Z,94678.00
2023-11-05T01:13:09.716Z,94676.00
2023-11-05T01:13:19.761Z,94680.00
2023-11-05T01:13:29.804Z,94678.00
2023-11-05T01:13:39.810Z,94684.00
2023-11-05T01:13:49.822Z,94684.00
2023-11-05T01:13:59.828Z,94682.00
2023-11-05T01:14:09.865Z,94678.00
2023-11-05T01:14:19.863Z,94674.00
2023-11-05T01:14:29.875Z,94680.00
2023-11-05T01:14:39.893Z,94680.00
2023-11-05T01:14:49.898Z,94686.00
2023-11-05T01:14:59.906Z,94680.00
2023-11-05T01:15:09.929Z,94674.00
2023-11-05T01:15:19.952Z,94674.00
2023-11-05T01:15:29.973Z,94676.00
2023-11-05T01:15:39.981Z,94674.00
2023-11-05T01:15:49.980Z,94676.00
2023-11-05T01:16:00.036Z,94668.00
2023-11-05T01:16:10.377Z,94664.00
2023-11-05T01:16:20.440Z,94664.00
2023-11-05T01:16:30.525Z,94664.00
2023-11-05T01:16:40.541Z,94662.00
2023-11-05T01:16:50.564Z,94662.00
2023-11-05T01:17:00.571Z,94662.00
2023-11-05T01:17:10.837Z,94662.00
2023-11-05T01:17:22.617Z,94666.00
2023-11-05T01:17:30.706Z,94664.00
2023-11-05T01:17:40.728Z,94666.00
2023-11-05T01:17:50.755Z,94666.00
2023-11-05T01:18:00.825Z,94660.00
2023-11-05T01:18:10.903Z,94662.00
2023-11-05T01:18:20.946Z,94656.00
2023-11-05T01:18:30.950Z,94662.00
2023-11-05T01:18:40.977Z,94662.00
2023-11-05T01:18:51.015Z,94662.00
2023-11-05T01:19:01.132Z,94664.00
2023-11-05T01:19:11.091Z,94664.00
2023-11-05T01:19:21.144Z,94664.00
2023-11-05T01:19:31.180Z,94666.00
2023-11-05T01:19:41.314Z,94655.00
2023-11-05T01:19:51.418Z,94649.00
2023-11-05T01:20:01.430Z,94660.00
2023-11-05T01:20:11.437Z,94666.00
2023-11-05T01:20:21.431Z,94666.00
2023-11-05T01:20:31.440Z,94656.00
2023-11-05T01:20:41.449Z,94655.00
2023-11-05T01:20:51.465Z,94656.00
2023-11-05T01:21:01.490Z,94660.00
2023-11-05T01:21:11.491Z,94662.00
2023-11-05T01:21:21.516Z,94662.00
2023-11-05T01:21:31.524Z,94653.00
2023-11-05T01:21:41.548Z,94656.00
2023-11-05T01:21:51.562Z,94656.00
2023-11-05T01:22:01.638Z,94660.00
2023-11-05T01:22:11.594Z,94664.00
2023-11-05T01:22:21.655Z,94655.00
2023-11-05T01:22:31.678Z,94651.00
2023-11-05T01:22:41.699Z,94649.00
2023-11-05T01:22:51.719Z,94649.00
2023-11-05T01:23:01.734Z,94643.00
2023-11-05T01:23:11.832Z,94631.00
2023-11-05T01:23:21.841Z,94651.00
2023-11-05T01:23:31.881Z,94653.00
2023-11-05T01:23:41.870Z,94641.00
2023-11-05T01:23:51.878Z,94633.00
2023-11-05T01:24:01.879Z,94651.00
2023-11-05T01:24:11.910Z,94653.00
2023-11-05T01:24:21.923Z,94633.00
2023-11-05T01:24:31.917Z,94631.00
2023-11-05T01:24:41.927Z,94645.00
2023-11-05T01:24:51.931Z,94641.00
2023-11-05T01:25:01.998Z,94641.00
2023-11-05T01:25:12.096Z,94641.00
2023-11-05T01:25:22.195Z,94647.00
2023-11-05T01:25:32.279Z,94645.00
2023-11-05T01:25:42.337Z,94643.00
2023-11-05T01:25:52.346Z,94645.00
2023-11-05T01:26:02.628Z,94645.00
2023-11-05T01:26:12.644Z,94645.00
2023-11-05T01:26:22.639Z,94641.00
2023-11-05T01:26:32.642Z,94633.00
2023-11-05T01:26:42.649Z,94631.00
2023-11-05T01:26:52.701Z,94627.00
2023-11-05T01:27:02.703Z,94625.00
2023-11-05T01:27:12.752Z,94621.00
2023-11-05T01:27:22.750Z,94615.00
2023-11-05T01:27:32.757Z,94615.00
2023-11-05T01:27:42.821Z,94621.00
2023-11-05T01:27:52.879Z,94617.00
2023-11-05T01:28:02.906Z,94621.00
2023-11-05T01:28:12.927Z,94623.00
2023-11-05T01:28:22.977Z,94625.00
2023-11-05T01:28:33.030Z,94621.00
2023-11-05T01:28:43.052Z,94619.00
2023-11-05T01:28:53.065Z,94615.00
2023-11-05T01:29:03.090Z,94621.00
2023-11-05T01:29:13.088Z,94619.00
2023-11-05T01:29:23.109Z,94621.00
2023-11-05T01:29:33.127Z,94619.00
2023-11-05T01:29:43.130Z,94627.00
2023-11-05T01:29:53.136Z,94619.00
2023-11-05T01:30:03.155Z,94610.00
2023-11-05T01:30:13.172Z,94615.00
2023-11-05T01:30:23.180Z,94613.00
2023-11-05T01:30:33.176Z,94608.00
2023-11-05T01:30:43.179Z,94606.00
2023-11-05T01:30:53.207Z,94604.00
2023-11-05T01:31:03.236Z,94606.00
2023-11-05T01:31:13.272Z,94610.00
2023-11-05T01:31:23.403Z,94611.00
2023-11-05T01:31:33.573Z,94608.00
2023-11-05T01:31:43.445Z,94604.00
2023-11-05T01:31:53.454Z,94596.00
2023-11-05T01:32:03.464Z,94596.00
2023-11-05T01:32:13.472Z,94602.00
2023-11-05T01:32:23.787Z,94608.00
2023-11-05T01:32:33.879Z,94613.00
2023-11-05T01:32:44.045Z,94613.00
2023-11-05T01:32:54.043Z,94606.00
2023-11-05T01:33:04.214Z,94602.00
2023-11-05T01:33:14.218Z,94608.00
2023-11-05T01:33:24.332Z,94608.00
2023-11-05T01:33:34.285Z,94604.00
2023-11-05T01:33:44.370Z,94604.00
2023-11-05T01:33:54.371Z,94608.00
2023-11-05T01:34:04.695Z,94598.00
2023-11-05T01:34:14.753Z,94598.00
2023-11-05T01:34:24.772Z,94598.00
2023-11-05T01:34:34.854Z,94596.00
2023-11-05T01:34:45.004Z,94596.00
2023-11-05T01:34:54.911Z,94600.00
2023-11-05T01:35:05.029Z,94600.00
2023-11-05T01:35:15.042Z,94598.00
2023-11-05T01:35:25.042Z,94592.00
2023-11-05T01:35:35.059Z,94590.00
2023-11-05T01:35:45.350Z,94592.00
2023-11-05T01:35:55.344Z,94590.00
2023-11-05T01:36:06.759Z,94592.00
2023-11-05T01:36:15.372Z,94584.00
2023-11-05T01:36:25.628Z,94578.00
2023-11-05T01:36:35.627Z,94586.00
2023-11-05T01:36:45.646Z,94588.00
2023-11-05T01:36:55.646Z,94594.00
2023-11-05T01:37:05.699Z,94588.00
2023-11-05T01:37:15.736Z,94594.00
2023-11-05T01:37:25.762Z,94582.00
2023-11-05T01:37:35.798Z,94584.00
2023-11-05T01:37:45.795Z,94582.00
2023-11-05T01:37:55.823Z,94574.00
2023-11-05T01:38:05.815Z,94570.00
2023-11-05T01:38:15.831Z,94572.00
2023-11-05T01:38:25.860Z,94576.00
2023-11-05T01:38:35.884Z,94578.00
2023-11-05T01:38:45.893Z,94580.00
2023-11-05T01:38:55.913Z,94578.00
2023-11-05T01:39:05.913Z,94578.00
2023-11-05T01:39:15.933Z,94580.00
2023-11-05T01:39:25.964Z,94582.00
2023-11-05T01:39:35.968Z,94580.00
2023-11-05T01:39:45.968Z,94582.00
2023-11-05T01:39:55.998Z,94576.00
2023-11-05T01:40:06.023Z,94578.00
2023-11-05T01:40:16.123Z,94584.00
2023-11-05T01:40:26.071Z,94584.00
2023-11-05T01:40:36.161Z,94580.00
2023-11-05T01:40:46.287Z,94588.00
2023-11-05T01:40:56.215Z,94588.00
2023-11-05T01:41:06.256Z,94582.00
2023-11-05T01:41:16.369Z,94578.00
2023-11-05T01:41:26.280Z,94576.00
2023-11-05T01:41:36.320Z,94574.00
2023-11-05T01:41:46.354Z,94574.00
2023-11-05T01:41:56.359Z,94578.00
2023-11-05T01:42:06.351Z,94580.00
2023-11-05T01:42:16.386Z,94574.00
2023-11-05T01:42:26.373Z,94568.00
2023-11-05T01:42:36.387Z,94564.00
2023-11-05T01:42:46.408Z,94570.00
2023-11-05T01:42:56.442Z,94576.00
2023-11-05T01:43:06.475Z,94572.00
2023-11-05T01:43:16.512Z,94574.00
2023-11-05T01:43:26.667Z,94576.00
2023-11-05T01:43:36.667Z,94580.00
2023-11-05T01:43:46.690Z,94578.00
2023-11-05T01:43:56.704Z,94588.00
2023-11-05T01:44:06.709Z,94594.00
2023-11-05T01:44:16.724Z,94592.00
2023-11-05T01:44:26.731Z,94590.00
2023-11-05T01:44:36.741Z,94578.00
2023-11-05T01:44:46.751Z,94570.00
2023-11-05T01:44:56.768Z,94574.00
2023-11-05T01:45:06.784Z,94578.00
2023-11-05T01:45:16.800Z,94578.00
2023-11-05T01:45:26.803Z,94578.00
2023-11-05T01:45:36.805Z,94578.00
2023-11-05T01:45:46.819Z,94576.00
2023-11-05T01:45:56.825Z,94568.00
2023-11-05T01:46:06.835Z,94570.00
2023-11-05T01:46:16.877Z,94572.00
2023-11-05T01:46:26.933Z,94570.00
2023-11-05T01:46:36.995Z,94586.00
2023-11-05T01:46:46.994Z,94580.00
2023-11-05T01:46:57.002Z,94574.00
2023-11-05T01:47:07.011Z,94578.00
2023-11-05T01:47:17.017Z,94576.00
2023-11-05T01:47:27.038Z,94570.00
2023-11-05T01:47:37.099Z,94572.00
2023-11-05T01:47:47.176Z,94572.00
2023-11-05T01:47:57.319Z,94572.00
2023-11-05T01:48:07.276Z,94572.00
2023-11-05T01:48:17.421Z,94574.00
2023-11-05T01:48:27.352Z,94578.00
2023-11-05T01:48:37.407Z,94576.00
2023-11-05T01:48:47.504Z,94574.00
2023-11-05T01:48:57.543Z,94574.00
2023-11-05T01:49:07.557Z,94576.00
2023-11-05T01:49:17.601Z,94578.00
2023-11-05T01:49:27.668Z,94576.00
2023-11-05T01:49:37.730Z,94568.00
2023-11-05T01:49:48.002Z,94570.00
2023-11-05T01:49:58.001Z,94576.00
2023-11-05T01:50:08.020Z,94582.00
2023-11-05T01:50:18.022Z,94586.00
2023-11-05T01:50:28.062Z,94584.00
2023-11-05T01:50:38.104Z,94584.00
2023-11-05T01:50:48.154Z,94574.00
2023-11-05T01:50:58.168Z,94572.00
2023-11-05T01:51:08.190Z,94576.00
2023-11-05T01:51:18.174Z,94572.00
2023-11-05T01:51:28.178Z,94572.00
2023-11-05T01:51:38.190Z,94574.00
2023-11-05T01:51:48.192Z,94578.00
2023-11-05T01:51:58.208Z,94574.00
2023-11-05T01:52:08.351Z,94572.00
2023-11-05T01:52:18.389Z,94580.00
2023-11-05T01:52:28.457Z,94580.00
2023-11-05T01:52:38.748Z,94574.00
2023-11-05T01:52:48.752Z,94582.00
2023-11-05T01:52:58.752Z,94588.00
2023-11-05T01:53:08.759Z,94584.00
2023-11-05T01:53:18.769Z,94580.00
2023-11-05T01:53:28.778Z,94582.00
2023-11-05T01:53:38.804Z,94584.00
2023-11-05T01:53:48.814Z,94586.00
2023-11-05T01:53:58.841Z,94588.00
2023-11-05T01:54:08.841Z,94582.00
2023-11-05T01:54:18.849Z,94584.00
2023-11-05T01:54:28.873Z,94588.00
2023-11-05T01:54:38.887Z,94582.00
2023-11-05T01:54:48.900Z,94584.00
2023-11-05T01:54:58.934Z,94580.00
2023-11-05T01:55:09.045Z,94578.00
2023-11-05T01:55:19.081Z,94574.00
2023-11-05T01:55:29.404Z,94568.00
2023-11-05T01:55:39.478Z,94578.00
2023-11-05T01:55:49.508Z,94590.00
2023-11-05T01:55:59.517Z,94598.00
2023-11-05T01:56:09.529Z,94572.00
2023-11-05T01:56:19.536Z,94572.00
2023-11-05T01:56:29.547Z,94568.00
2023-11-05T01:56:39.567Z,94574.00
2023-11-05T01:56:49.604Z,94578.00
2023-11-05T01:56:59.597Z,94578.00
2023-11-05T01:57:09.604Z,94578.00
2023-11-05T01:57:19.608Z,94586.00
2023-11-05T01:57:29.615Z,94584.00
2023-11-05T01:57:39.628Z,94574.00
2023-11-05T01:57:49.638Z,94572.00